Nearby METAR Reports

 

KMQS - Coatesville, Pennsylvania, USA
Distance from station: ENE 6mi, 10km
Updated: Thu, 23-Nov-2017 9:35am EST
Clear
Clear
 Wind from N
Wind: N 10 mph , 17 km/h
Temperature: 34°F , 1°C
Wind Chill: 26°F , -3°C
Dew Point: 19°F , -7°C
Humidity: 56%
Barometer: 30.15 inHg , 1021 hPa
Clouds: Clear
Visibility: 10 miles , 16 km
2017/11/23 14:35 KMQS 231435Z AUTO 35009KT 10SM CLR 01/M07 A3015 RMK AO2
KLNS - Lancaster, Pennsylvania, USA
Distance from station: NW 21mi, 33km
Updated: Thu, 23-Nov-2017 8:53am EST
Clear
Clear
 Wind from WNW
Wind: WNW 5 mph , 7 km/h
Temperature: 32°F , 0°C
Wind Chill: 27°F , -3°C
Dew Point: 25°F , -4°C
Humidity: 75%
Barometer: 30.16 inHg , 1021.3 hPa
Clouds: Clear
Visibility: 10 miles , 16 km
2017/11/23 13:53 KLNS 231353Z 30004KT 10SM CLR 00/M04 A3016 RMK AO2 SLP218 T00001044
 
KILG - Wilmington, Delaware, USA
Distance from station: SE 28mi, 45km
Updated: Thu, 23-Nov-2017 8:51am EST
Clear
Clear
 Wind from NW
Wind: NW 6 mph , 9 km/h
Temperature: 34°F , 1°C
Wind Chill: 29°F , -2°C
Dew Point: 21°F , -6°C
Humidity: 60%
Barometer: 30.19 inHg , 1022.4 hPa
Clouds: Clear
Visibility: 10 miles , 16 km
2017/11/23 13:51 KILG 231351Z 32005KT 10SM CLR 01/M06 A3019 RMK AO2 SLP222 T00111056
KRDG - Reading, Pennsylvania, USA
Distance from station: N 29mi, 47km
Updated: Thu, 23-Nov-2017 8:54am EST
Clear
Clear
 Wind from varies
Wind: varies 7 mph , 11 km/h
Temperature: 34°F , 1°C
Wind Chill: 28°F , -2°C
Dew Point: 21°F , -6°C
Humidity: 60%
Barometer: 30.16 inHg , 1021.3 hPa
Clouds: Clear
Visibility: 10 miles , 16 km
2017/11/23 13:54 KRDG 231354Z AUTO VRB06KT 10SM CLR 01/M06 A3016 RMK AO2 SLP220 T00061056
 
KPTW - Pottstown, Pennsylvania, USA
Distance from station: NE 30mi, 48km
Updated: Thu, 23-Nov-2017 8:54am EST
Clear
Clear
 Wind from NNW
Wind: NNW 10 mph , 17 km/h
Temperature: 30°F , -1°C
Wind Chill: 21°F , -6°C
Dew Point: 18°F , -8°C
Humidity: 59%
Barometer: 30.18 inHg , 1022 hPa
Clouds: Clear
Visibility: 10 miles , 16 km
2017/11/23 13:54 KPTW 231354Z AUTO 34009KT 10SM CLR M01/M08 A3018 RMK AO2 SLP218 T10061083